createdAt,value
2023-11-19T00:01:25.528Z,61.67
2023-11-19T00:03:54.626Z,61.39
2023-11-19T00:06:24.158Z,61.19
2023-11-19T00:08:53.409Z,61.49
2023-11-19T00:11:21.279Z,61.45
2023-11-19T00:13:49.218Z,61.51
2023-11-19T00:16:17.715Z,61.54
2023-11-19T00:18:45.750Z,61.83
2023-11-19T00:21:13.737Z,61.50
2023-11-19T00:23:41.681Z,61.85
2023-11-19T00:26:11.379Z,61.78
2023-11-19T00:28:40.416Z,61.87
2023-11-19T00:31:08.598Z,62.02
2023-11-19T00:36:17.041Z,61.59
2023-11-19T00:38:44.931Z,61.50
2023-11-19T00:41:17.001Z,61.89
2023-11-19T00:43:44.933Z,61.38
2023-11-19T00:46:13.050Z,61.81
2023-11-19T00:48:41.191Z,61.55
2023-11-19T00:51:09.623Z,61.57
2023-11-19T00:53:37.563Z,61.91
2023-11-19T00:56:06.066Z,61.67
2023-11-19T00:58:35.319Z,61.93
2023-11-19T01:01:03.173Z,61.88
2023-11-19T01:03:31.237Z,61.88
2023-11-19T01:06:00.802Z,61.74
2023-11-19T01:08:29.262Z,62.23
2023-11-19T01:10:57.172Z,62.06
2023-11-19T01:13:25.730Z,62.27
2023-11-19T01:15:57.368Z,62.43
2023-11-19T01:18:25.554Z,62.22
2023-11-19T01:20:53.558Z,62.54
2023-11-19T01:23:21.471Z,62.50
2023-11-19T01:25:49.630Z,62.68
2023-11-19T01:28:17.625Z,62.76
2023-11-19T01:30:45.530Z,62.92
2023-11-19T01:33:14.937Z,62.80
2023-11-19T01:35:42.937Z,62.53
2023-11-19T01:38:11.002Z,62.93
2023-11-19T01:40:39.414Z,62.64
2023-11-19T01:43:07.389Z,63.01
2023-11-19T01:45:35.928Z,62.84
2023-11-19T01:48:06.066Z,63.13
2023-11-19T01:50:36.786Z,63.13
2023-11-19T01:53:04.849Z,62.58
2023-11-19T01:55:32.913Z,63.17
2023-11-19T01:58:03.707Z,62.45
2023-11-19T02:00:34.475Z,62.78
2023-11-19T02:03:02.946Z,63.01
2023-11-19T02:05:33.478Z,62.59
2023-11-19T02:08:03.413Z,62.74
2023-11-19T02:10:32.984Z,62.65
2023-11-19T02:15:34.541Z,62.96
2023-11-19T02:18:20.739Z,62.94
2023-11-19T02:20:50.929Z,62.41
2023-11-19T02:23:22.194Z,62.98
2023-11-19T02:26:03.996Z,63.02
2023-11-19T02:28:34.082Z,62.47
2023-11-19T02:31:02.243Z,62.45
2023-11-19T02:33:30.518Z,62.79
2023-11-19T02:35:58.536Z,62.46
2023-11-19T02:38:26.903Z,62.35
2023-11-19T02:40:55.075Z,62.53
2023-11-19T02:43:23.035Z,62.84
2023-11-19T02:45:52.683Z,62.83
2023-11-19T02:48:20.515Z,62.36
2023-11-19T02:50:49.305Z,62.81
2023-11-19T02:53:17.587Z,62.36
2023-11-19T02:55:49.764Z,62.39
2023-11-19T02:58:24.721Z,62.72
2023-11-19T03:00:58.655Z,62.81
2023-11-19T03:03:32.057Z,62.25
2023-11-19T03:06:00.254Z,62.58
2023-11-19T03:08:28.346Z,62.29
2023-11-19T03:10:56.361Z,62.70
2023-11-19T03:13:24.333Z,62.42
2023-11-19T03:15:52.743Z,62.71
2023-11-19T03:18:22.109Z,62.66
2023-11-19T03:20:50.847Z,62.46
2023-11-19T03:23:18.710Z,62.81
2023-11-19T03:25:46.667Z,62.61
2023-11-19T03:28:14.788Z,62.34
2023-11-19T03:30:43.046Z,62.21
2023-11-19T03:33:11.032Z,62.45
2023-11-19T03:35:42.208Z,62.46
2023-11-19T03:38:10.059Z,62.38
2023-11-19T03:40:39.230Z,62.08
2023-11-19T03:43:07.360Z,62.13
2023-11-19T03:45:35.343Z,62.44
2023-11-19T03:48:04.225Z,62.43
2023-11-19T03:50:32.162Z,62.26
2023-11-19T03:53:01.891Z,62.05
2023-11-19T03:55:30.068Z,62.24
2023-11-19T03:57:58.677Z,61.71
2023-11-19T04:00:26.584Z,61.87
2023-11-19T04:02:54.641Z,62.16
2023-11-19T04:05:22.529Z,61.93
2023-11-19T04:07:50.456Z,62.21
2023-11-19T04:10:19.877Z,61.60
2023-11-19T04:12:48.256Z,61.68
2023-11-19T04:15:16.721Z,61.65
2023-11-19T04:17:44.740Z,61.37
2023-11-19T04:20:14.635Z,61.54
2023-11-19T04:22:43.008Z,61.57
2023-11-19T04:25:12.202Z,61.21
2023-11-19T04:27:41.528Z,61.53
2023-11-19T04:30:12.377Z,61.22
2023-11-19T04:32:40.898Z,61.18
2023-11-19T04:35:10.705Z,61.46
2023-11-19T04:37:39.020Z,61.21
2023-11-19T04:40:08.416Z,61.42
2023-11-19T04:42:36.440Z,61.34
2023-11-19T04:45:07.971Z,61.14
2023-11-19T04:47:36.474Z,61.47
2023-11-19T04:50:04.660Z,61.05
2023-11-19T04:52:32.683Z,61.21
2023-11-19T04:55:00.644Z,60.99
2023-11-19T04:57:28.763Z,61.22
2023-11-19T04:59:56.562Z,61.14
2023-11-19T05:02:26.051Z,61.20
2023-11-19T05:04:54.211Z,61.18
2023-11-19T05:07:22.509Z,61.14
2023-11-19T05:09:50.378Z,60.88
2023-11-19T05:12:18.428Z,60.79
2023-11-19T05:14:51.831Z,61.09
2023-11-19T05:17:20.480Z,60.59
2023-11-19T05:19:50.074Z,60.75
2023-11-19T05:22:18.213Z,60.95
2023-11-19T05:24:46.105Z,60.64
2023-11-19T05:27:14.753Z,60.91
2023-11-19T05:29:44.015Z,60.56
2023-11-19T05:32:12.574Z,60.93
2023-11-19T05:34:52.103Z,60.59
2023-11-19T05:37:22.244Z,60.63
2023-11-19T05:39:50.284Z,60.80
2023-11-19T05:42:18.264Z,60.55
2023-11-19T05:44:46.173Z,60.71
2023-11-19T05:47:14.206Z,60.52
2023-11-19T05:49:42.268Z,60.34
2023-11-19T05:52:11.725Z,60.61
2023-11-19T05:54:41.344Z,60.60
2023-11-19T05:57:10.595Z,60.70
2023-11-19T05:59:39.065Z,60.47
2023-11-19T06:02:06.937Z,60.52
2023-11-19T06:04:35.027Z,60.49
2023-11-19T06:07:03.134Z,60.55
2023-11-19T06:09:31.237Z,60.27
2023-11-19T06:12:02.924Z,60.38
2023-11-19T06:14:30.904Z,59.86
2023-11-19T06:16:58.848Z,59.81
2023-11-19T06:19:30.637Z,59.82
2023-11-19T06:21:59.019Z,60.30
2023-11-19T06:24:26.874Z,59.71
2023-11-19T06:26:54.874Z,59.71
2023-11-19T06:29:24.106Z,59.45
2023-11-19T06:31:52.382Z,59.79
2023-11-19T06:34:20.275Z,59.54
2023-11-19T06:36:49.567Z,59.34
2023-11-19T06:39:18.597Z,59.38
2023-11-19T06:41:49.942Z,58.74
2023-11-19T06:44:17.976Z,59.28
2023-11-19T06:46:47.307Z,59.17
2023-11-19T06:49:15.510Z,58.87
2023-11-19T06:51:45.049Z,59.18
2023-11-19T06:54:13.059Z,59.08
2023-11-19T06:56:41.023Z,58.76
2023-11-19T06:59:08.996Z,58.99
2023-11-19T07:01:38.142Z,58.64
2023-11-19T07:04:10.564Z,58.46
2023-11-19T07:06:38.558Z,58.95
2023-11-19T07:09:11.607Z,58.78
2023-11-19T07:11:40.633Z,58.33
2023-11-19T07:14:09.102Z,58.66
2023-11-19T07:16:38.534Z,58.51
2023-11-19T07:19:08.257Z,58.54
2023-11-19T07:21:40.446Z,58.51
2023-11-19T07:24:09.278Z,58.13
2023-11-19T07:26:37.236Z,58.37
2023-11-19T07:29:08.695Z,58.33
2023-11-19T07:31:36.832Z,57.98
2023-11-19T07:34:04.915Z,58.28
2023-11-19T07:36:34.347Z,58.28
2023-11-19T07:39:02.232Z,57.76
2023-11-19T07:41:30.208Z,58.13
2023-11-19T07:43:58.133Z,57.71
2023-11-19T07:46:26.532Z,57.70
2023-11-19T07:48:55.028Z,57.71
2023-11-19T07:51:23.237Z,57.68
2023-11-19T07:53:52.597Z,57.84
2023-11-19T07:56:20.785Z,57.38
2023-11-19T07:58:49.376Z,57.87
2023-11-19T08:01:18.314Z,57.77
2023-11-19T08:06:17.477Z,57.98
2023-11-19T08:08:45.889Z,57.54
2023-11-19T08:11:16.144Z,57.44
2023-11-19T08:13:44.549Z,57.41
2023-11-19T08:16:13.065Z,57.55
2023-11-19T08:18:46.141Z,57.40
2023-11-19T08:21:14.654Z,57.69
2023-11-19T08:23:44.568Z,57.39
2023-11-19T08:26:12.729Z,57.79
2023-11-19T08:28:42.391Z,57.25
2023-11-19T08:31:10.569Z,57.70
2023-11-19T08:33:39.839Z,57.59
2023-11-19T08:36:08.882Z,57.50
2023-11-19T08:38:37.323Z,57.44
2023-11-19T08:41:06.591Z,57.92
2023-11-19T08:43:34.601Z,57.60
2023-11-19T08:46:04.293Z,57.26
2023-11-19T08:48:32.324Z,57.28
2023-11-19T08:51:05.203Z,57.60
2023-11-19T08:53:33.281Z,57.40
2023-11-19T08:56:01.642Z,57.74
2023-11-19T08:58:29.911Z,57.26
2023-11-19T09:00:58.481Z,57.12
2023-11-19T09:03:28.638Z,57.12
2023-11-19T09:05:56.786Z,56.98
2023-11-19T09:08:25.117Z,56.75
2023-11-19T09:10:53.247Z,57.20
2023-11-19T09:13:21.238Z,57.09
2023-11-19T09:15:49.709Z,56.67
2023-11-19T09:18:17.850Z,56.82
2023-11-19T09:20:47.928Z,56.77
2023-11-19T09:23:16.547Z,56.73
2023-11-19T09:25:45.717Z,56.64
2023-11-19T09:28:14.314Z,57.21
2023-11-19T09:30:42.429Z,57.24
2023-11-19T09:33:10.951Z,57.08
2023-11-19T09:35:39.004Z,56.68
2023-11-19T09:38:08.860Z,56.45
2023-11-19T09:40:36.848Z,56.77
2023-11-19T09:43:05.070Z,56.86
2023-11-19T09:45:40.993Z,56.21
2023-11-19T09:48:09.611Z,56.24
2023-11-19T09:50:38.027Z,56.11
2023-11-19T09:53:06.605Z,55.79
2023-11-19T09:55:35.894Z,55.80
2023-11-19T09:58:04.461Z,56.31
2023-11-19T10:00:33.032Z,56.83
2023-11-19T10:03:02.545Z,56.19
2023-11-19T10:05:30.679Z,56.07
2023-11-19T10:07:59.404Z,56.12
2023-11-19T10:10:27.600Z,55.67
2023-11-19T10:12:58.322Z,54.96
2023-11-19T10:15:28.620Z,55.52
2023-11-19T10:17:59.144Z,54.99
2023-11-19T10:20:27.758Z,54.74
2023-11-19T10:22:57.026Z,54.74
2023-11-19T10:25:26.802Z,54.45
2023-11-19T10:27:57.010Z,54.71
2023-11-19T10:30:27.331Z,54.66
2023-11-19T10:33:09.134Z,53.62
2023-11-19T10:35:38.364Z,54.54
2023-11-19T10:38:16.626Z,53.81
2023-11-19T10:40:44.769Z,54.62
2023-11-19T10:43:14.879Z,53.89
2023-11-19T10:45:43.138Z,53.97
2023-11-19T10:48:11.593Z,53.91
2023-11-19T10:50:40.593Z,53.58
2023-11-19T10:53:10.752Z,53.54
2023-11-19T10:55:40.892Z,53.52
2023-11-19T10:58:10.559Z,53.32
2023-11-19T11:00:47.222Z,52.54
2023-11-19T11:03:19.734Z,52.87
2023-11-19T11:05:49.616Z,53.40
2023-11-19T11:08:18.110Z,53.42
2023-11-19T11:13:19.263Z,53.12
2023-11-19T11:15:49.147Z,53.39
2023-11-19T11:18:18.308Z,52.74
2023-11-19T11:20:47.625Z,52.78
2023-11-19T11:23:45.139Z,51.87
2023-11-19T11:26:37.562Z,51.67
2023-11-19T11:29:11.651Z,53.10
2023-11-19T11:31:50.828Z,51.97
2023-11-19T11:34:53.065Z,51.99
2023-11-19T11:37:28.230Z,52.53
2023-11-19T11:40:00.508Z,53.07
2023-11-19T11:42:36.505Z,52.44
2023-11-19T11:45:09.159Z,52.95
2023-11-19T11:48:21.046Z,52.12
2023-11-19T11:51:00.390Z,52.12
2023-11-19T11:53:28.669Z,52.36
2023-11-19T11:56:02.192Z,51.81
2023-11-19T11:58:33.584Z,51.71
2023-11-19T12:01:04.393Z,52.02
2023-11-19T12:03:34.178Z,52.06
2023-11-19T12:06:04.367Z,51.74
2023-11-19T12:08:32.575Z,52.20
2023-11-19T12:11:01.067Z,51.79
2023-11-19T12:13:49.596Z,50.29
2023-11-19T12:16:17.516Z,51.49
2023-11-19T12:18:45.964Z,51.82
2023-11-19T12:21:29.965Z,50.25
2023-11-19T12:24:05.038Z,51.14
2023-11-19T12:26:35.469Z,51.29
2023-11-19T12:29:08.829Z,51.40
2023-11-19T12:31:40.905Z,50.95
2023-11-19T12:34:14.344Z,51.31
2023-11-19T12:36:44.647Z,50.90
2023-11-19T12:39:15.974Z,50.66
2023-11-19T12:41:56.393Z,50.11
2023-11-19T12:44:25.142Z,50.78
2023-11-19T12:47:05.612Z,50.42
2023-11-19T12:49:33.635Z,50.89
2023-11-19T12:52:04.187Z,50.56
2023-11-19T12:54:36.480Z,50.08
2023-11-19T12:57:06.037Z,50.20
2023-11-19T12:59:34.080Z,50.41
2023-11-19T13:02:04.285Z,50.83
2023-11-19T13:04:32.822Z,50.67
2023-11-19T13:07:07.567Z,50.33
2023-11-19T13:09:35.746Z,50.82
2023-11-19T13:12:15.807Z,49.72
2023-11-19T13:14:45.598Z,50.79
2023-11-19T13:17:17.191Z,50.28
2023-11-19T13:19:48.203Z,50.89
2023-11-19T13:22:17.737Z,50.54
2023-11-19T13:24:45.654Z,50.76
2023-11-19T13:27:13.624Z,50.39
2023-11-19T13:29:41.660Z,50.49
2023-11-19T13:32:09.842Z,50.86
2023-11-19T13:34:38.229Z,50.99
2023-11-19T13:37:06.267Z,50.58
2023-11-19T13:39:37.537Z,50.60
2023-11-19T13:44:37.221Z,50.74
2023-11-19T13:47:05.491Z,51.14
2023-11-19T13:49:51.418Z,51.05
2023-11-19T13:52:19.343Z,50.77
2023-11-19T13:54:57.424Z,50.65
2023-11-19T13:57:26.559Z,50.40
2023-11-19T13:59:54.791Z,50.84
2023-11-19T14:02:22.888Z,50.79
2023-11-19T14:04:50.794Z,50.68
2023-11-19T14:07:19.268Z,50.68
2023-11-19T14:09:48.611Z,50.74
2023-11-19T14:12:16.615Z,50.56
2023-11-19T14:14:44.955Z,50.72
2023-11-19T14:17:16.492Z,50.30
2023-11-19T14:19:45.275Z,50.79
2023-11-19T14:22:16.065Z,50.91
2023-11-19T14:24:44.268Z,50.75
2023-11-19T14:27:13.865Z,50.68
2023-11-19T14:29:41.944Z,50.87
2023-11-19T14:32:10.521Z,50.55
2023-11-19T14:34:39.357Z,50.61
2023-11-19T14:37:07.865Z,51.03
2023-11-19T14:39:35.970Z,50.79
2023-11-19T14:42:06.396Z,51.38
2023-11-19T14:44:35.875Z,51.40
2023-11-19T14:47:04.425Z,51.34
2023-11-19T14:49:32.679Z,51.56
2023-11-19T14:52:17.630Z,51.55
2023-11-19T14:54:47.083Z,52.07
2023-11-19T14:57:15.654Z,52.32
2023-11-19T14:59:45.176Z,52.00
2023-11-19T15:02:13.402Z,52.03
2023-11-19T15:04:42.681Z,52.37
2023-11-19T15:07:11.328Z,52.08
2023-11-19T15:09:39.397Z,52.42
2023-11-19T15:12:08.243Z,52.54
2023-11-19T15:14:36.570Z,52.08
2023-11-19T15:17:07.918Z,51.92
2023-11-19T15:19:36.087Z,52.24
2023-11-19T15:22:06.750Z,52.42
2023-11-19T15:24:34.947Z,52.04
2023-11-19T15:29:35.649Z,52.28
2023-11-19T15:32:05.542Z,52.73
2023-11-19T15:34:33.798Z,52.29
2023-11-19T15:37:02.124Z,52.47
2023-11-19T15:39:30.668Z,52.55
2023-11-19T15:42:00.494Z,52.68
2023-11-19T15:44:29.767Z,52.23
2023-11-19T15:46:57.732Z,52.28
2023-11-19T15:49:30.167Z,52.47
2023-11-19T15:51:58.386Z,52.38
2023-11-19T15:54:26.511Z,52.56
2023-11-19T15:56:54.597Z,52.52
2023-11-19T15:59:23.343Z,52.30
2023-11-19T16:01:51.564Z,52.63
2023-11-19T16:04:20.427Z,52.15
2023-11-19T16:06:50.118Z,52.24
2023-11-19T16:09:20.383Z,52.79
2023-11-19T16:11:54.568Z,52.82
2023-11-19T16:14:25.286Z,52.78
2023-11-19T16:16:54.893Z,52.82
2023-11-19T16:19:22.963Z,52.72
2023-11-19T16:21:52.447Z,52.35
2023-11-19T16:24:20.714Z,52.47
2023-11-19T16:26:50.204Z,52.66
2023-11-19T16:29:18.355Z,52.56
2023-11-19T16:31:46.889Z,52.49
2023-11-19T16:34:15.630Z,52.57
2023-11-19T16:36:44.929Z,52.72
2023-11-19T16:39:16.573Z,52.77
2023-11-19T16:41:45.247Z,53.03
2023-11-19T16:44:13.279Z,52.76
2023-11-19T16:46:41.403Z,52.47
2023-11-19T16:49:09.390Z,52.85
2023-11-19T16:51:37.381Z,52.41
2023-11-19T16:54:05.975Z,52.29
2023-11-19T16:57:47.571Z,52.22
2023-11-19T17:17:29.386Z,52.33
2023-11-19T17:20:44.818Z,52.27
2023-11-19T17:31:50.659Z,52.45
2023-11-19T17:45:05.789Z,53.12
2023-11-19T17:47:40.461Z,52.50
2023-11-19T17:56:16.007Z,52.31
2023-11-19T18:05:37.658Z,51.99
2023-11-19T18:08:09.736Z,52.26
2023-11-19T18:10:40.383Z,52.03
2023-11-19T18:13:09.523Z,52.10
2023-11-19T18:15:38.142Z,52.27
2023-11-19T18:18:06.594Z,51.86
2023-11-19T18:20:34.886Z,51.72
2023-11-19T18:23:03.078Z,51.71
2023-11-19T18:25:32.991Z,51.35
2023-11-19T18:28:02.338Z,51.75
2023-11-19T18:30:30.701Z,51.94
2023-11-19T18:32:59.214Z,51.48
2023-11-19T18:35:27.998Z,51.53
2023-11-19T18:37:56.707Z,51.75
2023-11-19T18:40:25.622Z,51.96
2023-11-19T18:42:55.650Z,51.62
2023-11-19T18:45:24.300Z,52.15
2023-11-19T18:47:53.001Z,52.00
2023-11-19T18:50:22.190Z,52.15
2023-11-19T18:52:50.815Z,52.36
2023-11-19T18:55:19.241Z,51.98
2023-11-19T18:57:48.132Z,52.24
2023-11-19T19:00:20.317Z,52.51
2023-11-19T19:05:22.956Z,52.29
2023-11-19T19:07:53.687Z,52.30
2023-11-19T19:10:22.124Z,52.76
2023-11-19T19:12:51.133Z,52.62
2023-11-19T19:15:20.755Z,52.50
2023-11-19T19:17:50.794Z,52.42
2023-11-19T19:20:19.577Z,52.67
2023-11-19T19:22:47.751Z,52.69
2023-11-19T19:25:17.127Z,53.26
2023-11-19T19:27:46.313Z,52.80
2023-11-19T19:30:15.394Z,53.30
2023-11-19T19:32:45.960Z,53.04
2023-11-19T19:35:14.632Z,52.92
2023-11-19T19:37:42.982Z,53.22
2023-11-19T19:42:45.784Z,53.71
2023-11-19T19:45:16.338Z,53.67
2023-11-19T19:47:46.019Z,53.37
2023-11-19T19:50:14.332Z,53.39
2023-11-19T19:52:42.794Z,53.91
2023-11-19T19:55:13.152Z,53.83
2023-11-19T19:57:46.539Z,53.64
2023-11-19T20:00:17.140Z,53.65
2023-11-19T20:02:47.697Z,53.92
2023-11-19T20:05:19.040Z,54.18
2023-11-19T20:07:49.078Z,53.89
2023-11-19T20:10:24.978Z,54.47
2023-11-19T20:12:53.218Z,54.02
2023-11-19T20:15:25.360Z,54.35
2023-11-19T20:17:55.012Z,54.57
2023-11-19T20:20:23.278Z,54.56
2023-11-19T20:22:55.101Z,54.36
2023-11-19T20:25:26.142Z,54.45
2023-11-19T20:27:54.540Z,54.43
2023-11-19T20:30:22.980Z,54.39
2023-11-19T20:32:51.353Z,54.25
2023-11-19T20:35:21.585Z,54.71
2023-11-19T20:37:53.156Z,54.75
2023-11-19T20:40:22.193Z,54.55
2023-11-19T20:42:51.684Z,54.60
2023-11-19T20:45:22.112Z,55.08
2023-11-19T20:47:51.761Z,55.09
2023-11-19T20:50:31.514Z,55.09
2023-11-19T20:53:04.294Z,55.27
2023-11-19T20:55:34.244Z,55.01
2023-11-19T20:58:05.798Z,54.84
2023-11-19T21:00:34.404Z,55.00
2023-11-19T21:03:09.223Z,55.30
2023-11-19T21:05:41.242Z,55.35
2023-11-19T21:08:10.145Z,55.02
2023-11-19T21:10:38.329Z,55.05
2023-11-19T21:13:06.621Z,55.44
2023-11-19T21:15:39.433Z,55.16
2023-11-19T21:18:12.248Z,55.38
2023-11-19T21:20:45.447Z,55.28
2023-11-19T21:23:13.998Z,54.77
2023-11-19T21:25:42.125Z,54.94
2023-11-19T21:28:10.690Z,55.30
2023-11-19T21:30:40.048Z,55.14
2023-11-19T21:33:08.770Z,54.92
2023-11-19T21:35:38.931Z,55.23
2023-11-19T21:38:08.523Z,55.06
2023-11-19T21:40:36.671Z,55.42
2023-11-19T21:43:06.860Z,55.29
2023-11-19T21:45:46.572Z,55.34
2023-11-19T21:48:18.322Z,55.27
2023-11-19T21:50:51.861Z,55.22
2023-11-19T21:53:21.734Z,55.20
2023-11-19T21:55:51.062Z,55.11
2023-11-19T21:58:19.190Z,55.13
2023-11-19T22:00:47.541Z,54.98
2023-11-19T22:03:16.010Z,55.17
2023-11-19T22:05:44.246Z,55.17
2023-11-19T22:10:48.446Z,55.55
2023-11-19T22:13:17.048Z,55.08
2023-11-19T22:15:45.324Z,54.98
2023-11-19T22:18:13.505Z,54.97
2023-11-19T22:20:41.768Z,55.28
2023-11-19T22:23:10.476Z,55.40
2023-11-19T22:25:38.637Z,55.08
2023-11-19T22:28:08.032Z,55.26
2023-11-19T22:30:36.519Z,55.54
2023-11-19T22:33:08.406Z,55.62
2023-11-19T22:35:37.902Z,55.57
2023-11-19T22:38:07.216Z,55.65
2023-11-19T22:40:36.887Z,55.57
2023-11-19T22:43:05.049Z,55.60
2023-11-19T22:45:34.734Z,55.60
2023-11-19T22:48:03.359Z,55.12
2023-11-19T22:50:32.957Z,55.68
2023-11-19T22:53:01.371Z,55.52
2023-11-19T22:55:29.419Z,55.53
2023-11-19T22:58:01.137Z,55.27
2023-11-19T23:00:30.790Z,55.79
2023-11-19T23:03:04.926Z,55.47
2023-11-19T23:05:41.463Z,55.58
2023-11-19T23:08:12.041Z,55.49
2023-11-19T23:10:40.206Z,55.72
2023-11-19T23:13:08.573Z,55.90
2023-11-19T23:15:36.587Z,55.69
2023-11-19T23:18:06.446Z,55.26
2023-11-19T23:20:34.694Z,55.64
2023-11-19T23:23:03.242Z,55.20
2023-11-19T23:25:31.623Z,55.27
2023-11-19T23:27:59.641Z,55.35
2023-11-19T23:30:27.859Z,55.22
2023-11-19T23:32:55.951Z,55.02
2023-11-19T23:35:25.293Z,55.29
2023-11-19T23:37:53.189Z,55.53
2023-11-19T23:40:21.132Z,55.56
2023-11-19T23:42:49.494Z,55.26
2023-11-19T23:45:17.941Z,55.10
2023-11-19T23:47:45.912Z,55.08
2023-11-19T23:50:14.032Z,55.24
2023-11-19T23:52:43.301Z,55.41
2023-11-19T23:55:12.509Z,55.19
2023-11-19T23:57:41.475Z,55.26
